sensor_id;sensor_type;location;lat;lon;timestamp;pressure;altitude;pressure_sealevel;temperature;humidity
62725;BME280;49026;52.600;4.694;2023-12-14T00:02:04;101156.53;;;4.48;100.00
62725;BME280;49026;52.600;4.694;2023-12-14T00:04:32;101160.88;;;4.47;100.00
62725;BME280;49026;52.600;4.694;2023-12-14T00:06:57;101152.22;;;4.47;100.00
62725;BME280;49026;52.600;4.694;2023-12-14T00:09:22;101161.72;;;4.48;100.00
62725;BME280;49026;52.600;4.694;2023-12-14T00:11:50;101165.22;;;4.47;100.00
62725;BME280;49026;52.600;4.694;2023-12-14T00:14:17;101163.47;;;4.45;100.00
62725;BME280;49026;52.600;4.694;2023-12-14T00:16:42;101173.03;;;4.47;100.00
62725;BME280;49026;52.600;4.694;2023-12-14T00:19:08;101186.03;;;4.47;100.00
62725;BME280;49026;52.600;4.694;2023-12-14T00:21:33;101174.78;;;4.44;100.00
62725;BME280;49026;52.600;4.694;2023-12-14T00:23:58;101185.19;;;4.44;100.00
62725;BME280;49026;52.600;4.694;2023-12-14T00:26:26;101186.91;;;4.44;100.00
62725;BME280;49026;52.600;4.694;2023-12-14T00:28:53;101180.84;;;4.43;100.00
62725;BME280;49026;52.600;4.694;2023-12-14T00:31:19;101191.25;;;4.45;100.00
62725;BME280;49026;52.600;4.694;2023-12-14T00:33:44;101197.34;;;4.42;100.00
62725;BME280;49026;52.600;4.694;2023-12-14T00:36:10;101205.13;;;4.42;100.00
62725;BME280;49026;52.600;4.694;2023-12-14T00:38:37;101207.75;;;4.42;100.00
62725;BME280;49026;52.600;4.694;2023-12-14T00:41:04;101213.84;;;4.41;100.00
62725;BME280;49026;52.600;4.694;2023-12-14T00:43:30;101215.56;;;4.42;100.00
62725;BME280;49026;52.600;4.694;2023-12-14T00:45:57;101231.22;;;4.39;100.00
62725;BME280;49026;52.600;4.694;2023-12-14T00:48:23;101232.06;;;4.40;100.00
62725;BME280;49026;52.600;4.694;2023-12-14T00:50:48;101232.91;;;4.40;100.00
62725;BME280;49026;52.600;4.694;2023-12-14T00:53:13;101238.13;;;4.42;100.00
62725;BME280;49026;52.600;4.694;2023-12-14T00:55:38;101241.56;;;4.42;100.00
62725;BME280;49026;52.600;4.694;2023-12-14T00:58:04;101239.88;;;4.41;100.00
62725;BME280;49026;52.600;4.694;2023-12-14T01:00:33;101254.59;;;4.42;100.00
62725;BME280;49026;52.600;4.694;2023-12-14T01:02:58;101254.59;;;4.42;100.00
62725;BME280;49026;52.600;4.694;2023-12-14T01:05:26;101258.94;;;4.42;100.00
62725;BME280;49026;52.600;4.694;2023-12-14T01:07:55;101267.59;;;4.41;100.00
62725;BME280;49026;52.600;4.694;2023-12-14T01:10:21;101277.16;;;4.42;100.00
62725;BME280;49026;52.600;4.694;2023-12-14T01:12:47;101281.50;;;4.40;100.00
62725;BME280;49026;52.600;4.694;2023-12-14T01:28:39;101316.16;;;4.43;100.00
62725;BME280;49026;52.600;4.694;2023-12-14T01:31:04;101312.72;;;4.44;100.00
62725;BME280;49026;52.600;4.694;2023-12-14T01:33:29;101314.41;;;4.45;100.00
62725;BME280;49026;52.600;4.694;2023-12-14T01:35:54;101322.22;;;4.45;100.00
62725;BME280;49026;52.600;4.694;2023-12-14T01:38:22;101325.72;;;4.46;100.00
62725;BME280;49026;52.600;4.694;2023-12-14T01:40:47;101320.47;;;4.48;100.00
62725;BME280;49026;52.600;4.694;2023-12-14T01:43:12;101321.34;;;4.50;100.00
62725;BME280;49026;52.600;4.694;2023-12-14T01:45:40;101318.75;;;4.50;100.00
62725;BME280;49026;52.600;4.694;2023-12-14T01:48:08;101325.66;;;4.48;100.00
62725;BME280;49026;52.600;4.694;2023-12-14T01:50:33;101326.56;;;4.48;100.00
62725;BME280;49026;52.600;4.694;2023-12-14T01:52:59;101331.75;;;4.50;100.00
62725;BME280;49026;52.600;4.694;2023-12-14T01:55:24;101330.00;;;4.49;100.00
62725;BME280;49026;52.600;4.694;2023-12-14T01:57:51;101342.16;;;4.50;100.00
62725;BME280;49026;52.600;4.694;2023-12-14T02:00:39;101347.38;;;4.50;100.00
62725;BME280;49026;52.600;4.694;2023-12-14T02:03:06;101352.56;;;4.50;100.00
62725;BME280;49026;52.600;4.694;2023-12-14T02:05:34;101356.88;;;4.51;100.00
62725;BME280;49026;52.600;4.694;2023-12-14T02:07:59;101362.97;;;4.50;100.00
62725;BME280;49026;52.600;4.694;2023-12-14T02:10:24;101365.59;;;4.50;100.00
62725;BME280;49026;52.600;4.694;2023-12-14T02:12:49;101375.09;;;4.51;100.00
62725;BME280;49026;52.600;4.694;2023-12-14T02:15:15;101373.41;;;4.50;100.00
62725;BME280;49026;52.600;4.694;2023-12-14T02:17:42;101369.91;;;4.49;100.00
62725;BME280;49026;52.600;4.694;2023-12-14T02:20:10;101375.09;;;4.51;100.00
62725;BME280;49026;52.600;4.694;2023-12-14T02:22:48;101389.00;;;4.51;100.00
62725;BME280;49026;52.600;4.694;2023-12-14T02:25:20;101393.31;;;4.51;100.00
62725;BME280;49026;52.600;4.694;2023-12-14T02:27:46;101401.13;;;4.51;100.00
62725;BME280;49026;52.600;4.694;2023-12-14T02:30:14;101408.06;;;4.52;100.00
62725;BME280;49026;52.600;4.694;2023-12-14T02:32:43;101408.94;;;4.52;100.00
62725;BME280;49026;52.600;4.694;2023-12-14T02:35:09;101406.34;;;4.51;100.00
62725;BME280;49026;52.600;4.694;2023-12-14T02:37:34;101413.28;;;4.52;100.00
62725;BME280;49026;52.600;4.694;2023-12-14T02:40:08;101401.13;;;4.51;100.00
62725;BME280;49026;52.600;4.694;2023-12-14T02:42:34;101409.81;;;4.51;100.00
62725;BME280;49026;52.600;4.694;2023-12-14T02:44:59;101409.84;;;4.50;100.00
62725;BME280;49026;52.600;4.694;2023-12-14T02:47:27;101415.88;;;4.50;100.00
62725;BME280;49026;52.600;4.694;2023-12-14T02:49:53;101411.53;;;4.49;100.00
62725;BME280;49026;52.600;4.694;2023-12-14T02:52:18;101408.09;;;4.49;100.00
62725;BME280;49026;52.600;4.694;2023-12-14T02:54:44;101408.94;;;4.49;100.00
62725;BME280;49026;52.600;4.694;2023-12-14T02:57:11;101412.44;;;4.50;100.00
62725;BME280;49026;52.600;4.694;2023-12-14T02:59:39;101419.34;;;4.49;100.00
62725;BME280;49026;52.600;4.694;2023-12-14T03:02:04;101430.66;;;4.50;100.00
62725;BME280;49026;52.600;4.694;2023-12-14T03:04:29;101429.75;;;4.49;100.00
62725;BME280;49026;52.600;4.694;2023-12-14T03:06:54;101432.38;;;4.51;100.00
62725;BME280;49026;52.600;4.694;2023-12-14T03:09:23;101435.84;;;4.51;100.00
62725;BME280;49026;52.600;4.694;2023-12-14T03:11:51;101441.91;;;4.52;100.00
62725;BME280;49026;52.600;4.694;2023-12-14T03:14:16;101438.44;;;4.51;100.00
62725;BME280;49026;52.600;4.694;2023-12-14T03:16:41;101449.72;;;4.50;100.00
62725;BME280;49026;52.600;4.694;2023-12-14T03:19:07;101452.34;;;4.49;100.00
62725;BME280;49026;52.600;4.694;2023-12-14T03:21:32;101445.38;;;4.48;100.00
62725;BME280;49026;52.600;4.694;2023-12-14T03:23:57;101443.69;;;4.47;100.00
62725;BME280;49026;52.600;4.694;2023-12-14T03:26:22;101441.94;;;4.45;100.00
62725;BME280;49026;52.600;4.694;2023-12-14T03:28:50;101439.34;;;4.45;100.00
62725;BME280;49026;52.600;4.694;2023-12-14T03:31:15;101444.53;;;4.45;100.00
62725;BME280;49026;52.600;4.694;2023-12-14T03:33:42;101449.75;;;4.45;100.00
62725;BME280;49026;52.600;4.694;2023-12-14T03:36:07;101453.25;;;4.44;100.00
62725;BME280;49026;52.600;4.694;2023-12-14T03:38:35;101457.56;;;4.44;100.00
62725;BME280;49026;52.600;4.694;2023-12-14T03:41:01;101460.16;;;4.45;100.00
62725;BME280;49026;52.600;4.694;2023-12-14T03:43:26;101460.16;;;4.45;100.00
62725;BME280;49026;52.600;4.694;2023-12-14T03:45:51;101461.03;;;4.44;100.00
62725;BME280;49026;52.600;4.694;2023-12-14T03:48:19;101459.28;;;4.47;100.00
62725;BME280;49026;52.600;4.694;2023-12-14T03:50:47;101450.63;;;4.46;100.00
62725;BME280;49026;52.600;4.694;2023-12-14T03:53:12;101457.56;;;4.44;100.00
62725;BME280;49026;52.600;4.694;2023-12-14T03:55:37;101459.31;;;4.43;100.00
62725;BME280;49026;52.600;4.694;2023-12-14T03:58:02;101474.91;;;4.45;100.00
62725;BME280;49026;52.600;4.694;2023-12-14T04:00:28;101461.91;;;4.45;100.00
62725;BME280;49026;52.600;4.694;2023-12-14T04:02:53;101468.84;;;4.44;100.00
62725;BME280;49026;52.600;4.694;2023-12-14T04:05:20;101477.53;;;4.43;100.00
62725;BME280;49026;52.600;4.694;2023-12-14T04:07:48;101463.66;;;4.41;100.00
62725;BME280;49026;52.600;4.694;2023-12-14T04:10:16;101473.19;;;4.41;100.00
62725;BME280;49026;52.600;4.694;2023-12-14T04:12:41;101472.31;;;4.40;100.00
62725;BME280;49026;52.600;4.694;2023-12-14T04:15:09;101474.06;;;4.38;100.00
62725;BME280;49026;52.600;4.694;2023-12-14T04:17:35;101478.44;;;4.35;100.00
62725;BME280;49026;52.600;4.694;2023-12-14T04:20:00;101487.94;;;4.34;100.00
62725;BME280;49026;52.600;4.694;2023-12-14T04:22:26;101497.50;;;4.34;100.00
62725;BME280;49026;52.600;4.694;2023-12-14T04:24:52;101502.72;;;4.32;100.00
62725;BME280;49026;52.600;4.694;2023-12-14T04:27:19;101511.41;;;4.31;100.00
62725;BME280;49026;52.600;4.694;2023-12-14T04:29:45;101514.00;;;4.33;100.00
62725;BME280;49026;52.600;4.694;2023-12-14T04:32:13;101536.53;;;4.32;100.00
62725;BME280;49026;52.600;4.694;2023-12-14T04:34:38;101540.88;;;4.32;100.00
62725;BME280;49026;52.600;4.694;2023-12-14T04:37:08;101548.69;;;4.30;100.00
62725;BME280;49026;52.600;4.694;2023-12-14T04:39:33;101553.88;;;4.32;100.00
62725;BME280;49026;52.600;4.694;2023-12-14T04:41:58;101566.91;;;4.32;100.00
62725;BME280;49026;52.600;4.694;2023-12-14T04:44:26;101564.31;;;4.30;100.00
62725;BME280;49026;52.600;4.694;2023-12-14T04:46:51;101571.25;;;4.31;100.00
62725;BME280;49026;52.600;4.694;2023-12-14T04:49:16;101576.44;;;4.31;100.00
62725;BME280;49026;52.600;4.694;2023-12-14T04:51:42;101579.91;;;4.32;100.00
62725;BME280;49026;52.600;4.694;2023-12-14T04:54:08;101585.13;;;4.32;100.00
62725;BME280;49026;52.600;4.694;2023-12-14T04:56:33;101583.38;;;4.32;100.00
62725;BME280;49026;52.600;4.694;2023-12-14T04:58:58;101584.25;;;4.31;100.00
62725;BME280;49026;52.600;4.694;2023-12-14T05:01:24;101585.13;;;4.32;100.00
62725;BME280;49026;52.600;4.694;2023-12-14T05:03:52;101591.19;;;4.31;100.00
62725;BME280;49026;52.600;4.694;2023-12-14T05:06:17;101589.47;;;4.31;100.00
62725;BME280;49026;52.600;4.694;2023-12-14T05:08:42;101591.19;;;4.29;100.00
62725;BME280;49026;52.600;4.694;2023-12-14T05:11:07;101585.97;;;4.31;99.53
62725;BME280;49026;52.600;4.694;2023-12-14T05:13:35;101590.31;;;4.30;99.67
62725;BME280;49026;52.600;4.694;2023-12-14T05:16:00;101591.19;;;4.32;100.00
62725;BME280;49026;52.600;4.694;2023-12-14T05:18:28;101601.59;;;4.32;100.00
62725;BME280;49026;52.600;4.694;2023-12-14T05:20:54;101605.94;;;4.32;100.00
62725;BME280;49026;52.600;4.694;2023-12-14T05:23:23;101606.78;;;4.31;100.00
62725;BME280;49026;52.600;4.694;2023-12-14T05:25:51;101607.69;;;4.31;100.00
62725;BME280;49026;52.600;4.694;2023-12-14T05:28:17;101612.88;;;4.31;100.00
62725;BME280;49026;52.600;4.694;2023-12-14T05:30:42;101605.06;;;4.30;100.00
62725;BME280;49026;52.600;4.694;2023-12-14T05:33:08;101604.19;;;4.31;100.00
62725;BME280;49026;52.600;4.694;2023-12-14T05:35:36;101588.56;;;4.29;100.00
62725;BME280;49026;52.600;4.694;2023-12-14T05:38:01;101603.31;;;4.29;100.00
62725;BME280;49026;52.600;4.694;2023-12-14T05:40:28;101601.59;;;4.31;100.00
62725;BME280;49026;52.600;4.694;2023-12-14T05:42:54;101605.94;;;4.30;100.00
62725;BME280;49026;52.600;4.694;2023-12-14T05:45:19;101617.19;;;4.29;100.00
62725;BME280;49026;52.600;4.694;2023-12-14T05:47:45;101625.00;;;4.29;100.00
62725;BME280;49026;52.600;4.694;2023-12-14T05:50:10;101632.81;;;4.29;100.00
62725;BME280;49026;52.600;4.694;2023-12-14T05:52:42;101634.56;;;4.30;99.97
62725;BME280;49026;52.600;4.694;2023-12-14T05:55:09;101633.69;;;4.30;100.00
62725;BME280;49026;52.600;4.694;2023-12-14T05:57:37;101643.22;;;4.29;99.83
62725;BME280;49026;52.600;4.694;2023-12-14T06:00:04;101640.63;;;4.29;99.66
62725;BME280;49026;52.600;4.694;2023-12-14T06:02:31;101631.94;;;4.29;100.00
62725;BME280;49026;52.600;4.694;2023-12-14T06:04:57;101638.91;;;4.26;100.00
62725;BME280;49026;52.600;4.694;2023-12-14T06:07:25;101649.31;;;4.25;100.00
62725;BME280;49026;52.600;4.694;2023-12-14T06:09:50;101647.56;;;4.22;100.00
62725;BME280;49026;52.600;4.694;2023-12-14T06:12:15;101653.66;;;4.18;99.33
62725;BME280;49026;52.600;4.694;2023-12-14T06:14:41;101665.78;;;4.16;99.31
62725;BME280;49026;52.600;4.694;2023-12-14T06:17:09;101667.53;;;4.11;99.34
62725;BME280;49026;52.600;4.694;2023-12-14T06:19:34;101671.84;;;4.07;99.61
62725;BME280;49026;52.600;4.694;2023-12-14T06:21:59;101668.38;;;4.04;99.56
62725;BME280;49026;52.600;4.694;2023-12-14T06:24:25;101676.19;;;4.02;99.63
62725;BME280;49026;52.600;4.694;2023-12-14T06:26:50;101684.84;;;3.97;99.34
62725;BME280;49026;52.600;4.694;2023-12-14T06:29:15;101690.91;;;3.94;99.44
62725;BME280;49026;52.600;4.694;2023-12-14T06:31:44;101692.63;;;3.89;99.39
62725;BME280;49026;52.600;4.694;2023-12-14T06:34:10;101700.44;;;3.87;99.24
62725;BME280;49026;52.600;4.694;2023-12-14T06:36:35;101695.25;;;3.81;98.30
62725;BME280;49026;52.600;4.694;2023-12-14T06:39:03;101707.38;;;3.79;98.34
62725;BME280;49026;52.600;4.694;2023-12-14T06:41:28;101706.47;;;3.77;98.26
62725;BME280;49026;52.600;4.694;2023-12-14T06:43:54;101708.22;;;3.77;98.17
62725;BME280;49026;52.600;4.694;2023-12-14T06:46:20;101710.84;;;3.80;98.22
62725;BME280;49026;52.600;4.694;2023-12-14T06:48:46;101724.69;;;3.82;98.59
62725;BME280;49026;52.600;4.694;2023-12-14T06:51:12;101729.03;;;3.78;98.22
62725;BME280;49026;52.600;4.694;2023-12-14T06:53:41;101723.81;;;3.70;97.01
62725;BME280;49026;52.600;4.694;2023-12-14T06:56:10;101735.94;;;3.67;97.16
62725;BME280;49026;52.600;4.694;2023-12-14T06:58:40;101742.00;;;3.61;97.92
62725;BME280;49026;52.600;4.694;2023-12-14T07:01:07;101745.41;;;3.56;98.03
62725;BME280;49026;52.600;4.694;2023-12-14T07:03:32;101751.50;;;3.53;98.93
62725;BME280;49026;52.600;4.694;2023-12-14T07:06:00;101754.09;;;3.53;99.62
62725;BME280;49026;52.600;4.694;2023-12-14T07:08:25;101751.50;;;3.55;99.75
62725;BME280;49026;52.600;4.694;2023-12-14T07:10:50;101758.41;;;3.57;100.00
62725;BME280;49026;52.600;4.694;2023-12-14T07:13:18;101761.03;;;3.59;99.99
62725;BME280;49026;52.600;4.694;2023-12-14T07:15:46;101768.81;;;3.59;100.00
62725;BME280;49026;52.600;4.694;2023-12-14T07:18:11;101772.31;;;3.58;100.00
62725;BME280;49026;52.600;4.694;2023-12-14T07:20:36;101775.75;;;3.58;100.00
62725;BME280;49026;52.600;4.694;2023-12-14T07:23:02;101778.38;;;3.61;100.00
62725;BME280;49026;52.600;4.694;2023-12-14T07:25:27;101783.56;;;3.67;100.00
62725;BME280;49026;52.600;4.694;2023-12-14T07:27:52;101781.88;;;3.69;100.00
62725;BME280;49026;52.600;4.694;2023-12-14T07:30:17;101797.50;;;3.73;100.00
62725;BME280;49026;52.600;4.694;2023-12-14T07:32:43;101788.78;;;3.72;100.00
62725;BME280;49026;52.600;4.694;2023-12-14T07:35:10;101796.59;;;3.70;100.00
62725;BME280;49026;52.600;4.694;2023-12-14T07:37:35;101798.31;;;3.68;100.00
62725;BME280;49026;52.600;4.694;2023-12-14T07:40:01;101794.88;;;3.68;100.00
62725;BME280;49026;52.600;4.694;2023-12-14T07:42:26;101800.06;;;3.66;100.00
62725;BME280;49026;52.600;4.694;2023-12-14T07:44:51;101801.78;;;3.64;100.00
62725;BME280;49026;52.600;4.694;2023-12-14T07:47:20;101802.59;;;3.56;100.00
62725;BME280;49026;52.600;4.694;2023-12-14T07:49:45;101798.22;;;3.47;100.00
62725;BME280;49026;52.600;4.694;2023-12-14T07:52:10;101796.47;;;3.40;100.00
62725;BME280;49026;52.600;4.694;2023-12-14T07:54:38;101805.09;;;3.32;100.00
62725;BME280;49026;52.600;4.694;2023-12-14T07:57:03;101805.06;;;3.25;100.00
62725;BME280;49026;52.600;4.694;2023-12-14T07:59:28;101800.69;;;3.16;100.00
62725;BME280;49026;52.600;4.694;2023-12-14T08:01:55;101805.81;;;3.10;100.00
62725;BME280;49026;52.600;4.694;2023-12-14T08:04:22;101810.97;;;3.05;100.00
62725;BME280;49026;52.600;4.694;2023-12-14T08:06:54;101821.38;;;3.05;100.00
62725;BME280;49026;52.600;4.694;2023-12-14T08:09:23;101823.94;;;3.04;100.00
62725;BME280;49026;52.600;4.694;2023-12-14T08:11:51;101810.94;;;3.01;100.00
62725;BME280;49026;52.600;4.694;2023-12-14T08:14:17;101827.44;;;3.03;100.00
62725;BME280;49026;52.600;4.694;2023-12-14T08:16:42;101822.25;;;3.07;100.00
62725;BME280;49026;52.600;4.694;2023-12-14T08:19:10;101831.84;;;3.16;100.00
62725;BME280;49026;52.600;4.694;2023-12-14T08:21:36;101837.97;;;3.30;100.00
62725;BME280;49026;52.600;4.694;2023-12-14T08:24:04;101832.00;;;3.47;100.00
62725;BME280;49026;52.600;4.694;2023-12-14T08:26:29;101836.47;;;3.73;100.00
62725;BME280;49026;52.600;4.694;2023-12-14T08:28:55;101848.78;;;4.24;100.00
62725;BME280;49026;52.600;4.694;2023-12-14T08:31:20;101859.25;;;4.83;100.00
62725;BME280;49026;52.600;4.694;2023-12-14T08:33:45;101860.97;;;5.07;99.50
62725;BME280;49026;52.600;4.694;2023-12-14T08:36:15;101870.53;;;5.10;99.44
62725;BME280;49026;52.600;4.694;2023-12-14T08:38:40;101867.88;;;5.42;98.95
62725;BME280;49026;52.600;4.694;2023-12-14T08:41:05;101871.19;;;5.84;98.93
62725;BME280;49026;52.600;4.694;2023-12-14T08:43:33;101872.81;;;6.24;97.83
62725;BME280;49026;52.600;4.694;2023-12-14T08:46:01;101891.66;;;6.67;97.24
62725;BME280;49026;52.600;4.694;2023-12-14T08:48:26;101886.09;;;7.09;97.31
62725;BME280;49026;52.600;4.694;2023-12-14T08:50:53;101897.06;;;7.48;96.46
62725;BME280;49026;52.600;4.694;2023-12-14T08:53:20;101895.75;;;7.88;96.69
62725;BME280;49026;52.600;4.694;2023-12-14T08:55:45;101898.75;;;8.27;96.68
62725;BME280;49026;52.600;4.694;2023-12-14T08:58:10;101899.03;;;8.70;95.97
62725;BME280;49026;52.600;4.694;2023-12-14T09:00:38;101901.94;;;9.06;95.89
62725;BME280;49026;52.600;4.694;2023-12-14T09:03:03;101913.75;;;9.32;95.77
62725;BME280;49026;52.600;4.694;2023-12-14T09:05:29;101918.75;;;9.46;95.62
62725;BME280;49026;52.600;4.694;2023-12-14T09:07:58;101909.03;;;9.51;95.90
62725;BME280;49026;52.600;4.694;2023-12-14T09:10:24;101911.06;;;9.34;95.93
62725;BME280;49026;52.600;4.694;2023-12-14T09:12:49;101910.00;;;8.96;96.97
62725;BME280;49026;52.600;4.694;2023-12-14T09:15:15;101929.59;;;8.70;97.98
62725;BME280;49026;52.600;4.694;2023-12-14T09:17:41;101929.97;;;8.42;100.00
62725;BME280;49026;52.600;4.694;2023-12-14T09:20:09;101935.56;;;8.14;100.00
62725;BME280;49026;52.600;4.694;2023-12-14T09:22:34;101942.88;;;7.88;100.00
62725;BME280;49026;52.600;4.694;2023-12-14T09:25:00;101948.34;;;7.63;100.00
62725;BME280;49026;52.600;4.694;2023-12-14T09:27:25;101947.81;;;7.29;100.00
62725;BME280;49026;52.600;4.694;2023-12-14T09:29:51;101942.88;;;6.92;100.00
62725;BME280;49026;52.600;4.694;2023-12-14T09:32:16;101945.66;;;6.65;100.00
62725;BME280;49026;52.600;4.694;2023-12-14T09:34:44;101945.75;;;6.50;100.00
62725;BME280;49026;52.600;4.694;2023-12-14T09:37:09;101943.19;;;6.39;100.00
62725;BME280;49026;52.600;4.694;2023-12-14T09:39:36;101956.31;;;6.32;100.00
62725;BME280;49026;52.600;4.694;2023-12-14T09:42:06;101952.81;;;6.26;100.00
62725;BME280;49026;52.600;4.694;2023-12-14T09:44:31;101955.47;;;6.25;100.00
62725;BME280;49026;52.600;4.694;2023-12-14T09:46:59;101956.34;;;6.16;100.00
62725;BME280;49026;52.600;4.694;2023-12-14T09:49:27;101962.47;;;6.14;100.00
62725;BME280;49026;52.600;4.694;2023-12-14T09:51:57;101965.91;;;6.16;100.00
62725;BME280;49026;52.600;4.694;2023-12-14T09:54:23;101964.16;;;6.22;100.00
62725;BME280;49026;52.600;4.694;2023-12-14T09:56:48;101970.22;;;6.30;100.00
62725;BME280;49026;52.600;4.694;2023-12-14T09:59:14;101972.84;;;6.27;100.00
62725;BME280;49026;52.600;4.694;2023-12-14T10:01:43;101974.59;;;6.22;100.00
62725;BME280;49026;52.600;4.694;2023-12-14T10:04:15;101976.34;;;6.22;100.00
62725;BME280;49026;52.600;4.694;2023-12-14T10:06:43;101970.25;;;6.21;100.00
62725;BME280;49026;52.600;4.694;2023-12-14T10:09:08;101974.59;;;6.24;100.00
62725;BME280;49026;52.600;4.694;2023-12-14T10:11:44;101975.44;;;6.27;100.00
62725;BME280;49026;52.600;4.694;2023-12-14T10:14:19;101971.06;;;6.34;100.00
62725;BME280;49026;52.600;4.694;2023-12-14T10:16:49;101977.13;;;6.42;100.00
62725;BME280;49026;52.600;4.694;2023-12-14T10:19:16;101982.34;;;6.47;100.00
62725;BME280;49026;52.600;4.694;2023-12-14T10:21:45;101982.31;;;6.50;100.00
62725;BME280;49026;52.600;4.694;2023-12-14T10:24:12;101981.44;;;6.49;100.00
62725;BME280;49026;52.600;4.694;2023-12-14T10:26:39;101979.72;;;6.44;100.00
62725;BME280;49026;52.600;4.694;2023-12-14T10:29:06;101980.66;;;6.35;100.00
62725;BME280;49026;52.600;4.694;2023-12-14T10:31:31;101978.91;;;6.26;100.00
62725;BME280;49026;52.600;4.694;2023-12-14T10:33:59;101978.06;;;6.26;100.00
62725;BME280;49026;52.600;4.694;2023-12-14T10:36:27;101990.19;;;6.35;100.00
62725;BME280;49026;52.600;4.694;2023-12-14T10:38:53;101995.31;;;6.61;100.00
62725;BME280;49026;52.600;4.694;2023-12-14T10:41:21;101996.88;;;6.90;100.00
62725;BME280;49026;52.600;4.694;2023-12-14T10:43:47;102004.53;;;7.19;100.00
62725;BME280;49026;52.600;4.694;2023-12-14T10:46:17;102003.53;;;7.37;100.00
62725;BME280;49026;52.600;4.694;2023-12-14T10:48:47;102003.38;;;7.55;100.00
62725;BME280;49026;52.600;4.694;2023-12-14T10:51:14;102004.22;;;7.59;100.00
62725;BME280;49026;52.600;4.694;2023-12-14T10:53:46;102013.75;;;7.61;100.00
62725;BME280;49026;52.600;4.694;2023-12-14T10:56:13;102011.13;;;7.63;100.00
62725;BME280;49026;52.600;4.694;2023-12-14T10:58:47;102014.66;;;7.59;100.00
62725;BME280;49026;52.600;4.694;2023-12-14T11:01:15;102012.13;;;7.50;100.00
62725;BME280;49026;52.600;4.694;2023-12-14T11:03:41;102000.78;;;7.51;100.00
62725;BME280;49026;52.600;4.694;2023-12-14T11:06:32;102002.47;;;7.58;100.00
62725;BME280;49026;52.600;4.694;2023-12-14T11:09:18;102008.88;;;8.14;100.00
62725;BME280;49026;52.600;4.694;2023-12-14T11:14:19;102013.19;;;9.46;100.00
62725;BME280;49026;52.600;4.694;2023-12-14T11:16:44;102023.16;;;9.25;99.17
62725;BME280;49026;52.600;4.694;2023-12-14T11:21:45;102023.63;;;8.92;100.00
62725;BME280;49026;52.600;4.694;2023-12-14T11:24:12;102028.31;;;8.71;100.00
62725;BME280;49026;52.600;4.694;2023-12-14T11:26:39;102034.75;;;8.42;100.00
62725;BME280;49026;52.600;4.694;2023-12-14T11:29:06;102031.63;;;8.08;100.00
62725;BME280;49026;52.600;4.694;2023-12-14T11:31:31;102030.22;;;7.76;100.00
62725;BME280;49026;52.600;4.694;2023-12-14T11:33:58;102027.81;;;7.51;100.00
62725;BME280;49026;52.600;4.694;2023-12-14T11:36:29;102033.16;;;7.37;100.00
62725;BME280;49026;52.600;4.694;2023-12-14T11:38:54;102030.56;;;7.31;100.00
62725;BME280;49026;52.600;4.694;2023-12-14T11:41:21;102035.81;;;7.28;100.00
62725;BME280;49026;52.600;4.694;2023-12-14T11:43:47;102033.25;;;7.25;100.00
62725;BME280;49026;52.600;4.694;2023-12-14T11:46:12;102030.66;;;7.23;100.00
62725;BME280;49026;52.600;4.694;2023-12-14T11:48:44;102036.72;;;7.26;100.00
62725;BME280;49026;52.600;4.694;2023-12-14T11:51:10;102045.44;;;7.23;100.00
62725;BME280;49026;52.600;4.694;2023-12-14T11:53:36;102034.19;;;7.15;100.00
62725;BME280;49026;52.600;4.694;2023-12-14T11:56:04;102046.41;;;7.08;100.00
62725;BME280;49026;52.600;4.694;2023-12-14T11:58:32;102054.31;;;7.00;100.00
62725;BME280;49026;52.600;4.694;2023-12-14T12:01:18;102056.13;;;6.91;100.00
62725;BME280;49026;52.600;4.694;2023-12-14T12:03:44;102060.53;;;6.76;100.00
62725;BME280;49026;52.600;4.694;2023-12-14T12:08:46;102053.53;;;6.80;100.00
62725;BME280;49026;52.600;4.694;2023-12-14T12:11:19;102053.38;;;7.14;100.00
62725;BME280;49026;52.600;4.694;2023-12-14T12:13:53;102053.72;;;7.81;100.00
62725;BME280;49026;52.600;4.694;2023-12-14T12:16:19;102051.75;;;8.03;100.00
62725;BME280;49026;52.600;4.694;2023-12-14T12:18:44;102048.34;;;7.94;100.00
62725;BME280;49026;52.600;4.694;2023-12-14T12:21:11;102047.66;;;7.75;100.00
62725;BME280;49026;52.600;4.694;2023-12-14T12:23:36;102050.38;;;7.63;100.00
62725;BME280;49026;52.600;4.694;2023-12-14T12:26:01;102051.38;;;7.47;100.00
62725;BME280;49026;52.600;4.694;2023-12-14T12:28:27;102048.88;;;7.31;100.00
62725;BME280;49026;52.600;4.694;2023-12-14T12:30:52;102050.69;;;7.21;100.00
62725;BME280;49026;52.600;4.694;2023-12-14T12:33:18;102048.16;;;7.14;100.00
62725;BME280;49026;52.600;4.694;2023-12-14T12:35:43;102056.03;;;7.04;100.00
62725;BME280;49026;52.600;4.694;2023-12-14T12:38:08;102059.56;;;6.99;100.00
62725;BME280;49026;52.600;4.694;2023-12-14T12:40:34;102055.19;;;6.96;100.00
62725;BME280;49026;52.600;4.694;2023-12-14T12:42:59;102061.31;;;6.94;100.00
62725;BME280;49026;52.600;4.694;2023-12-14T12:45:24;102051.75;;;6.93;100.00
62725;BME280;49026;52.600;4.694;2023-12-14T12:47:53;102058.75;;;6.86;100.00
62725;BME280;49026;52.600;4.694;2023-12-14T12:50:21;102064.00;;;6.80;100.00
62725;BME280;49026;52.600;4.694;2023-12-14T12:52:46;102064.91;;;6.74;100.00
62725;BME280;49026;52.600;4.694;2023-12-14T12:55:14;102068.41;;;6.70;100.00
62725;BME280;49026;52.600;4.694;2023-12-14T12:57:42;102063.19;;;6.72;100.00
62725;BME280;49026;52.600;4.694;2023-12-14T13:00:11;102063.16;;;6.75;100.00
62725;BME280;49026;52.600;4.694;2023-12-14T13:02:45;102064.06;;;6.71;100.00
62725;BME280;49026;52.600;4.694;2023-12-14T13:05:11;102053.63;;;6.64;100.00
62725;BME280;49026;52.600;4.694;2023-12-14T13:07:41;102064.97;;;6.54;100.00
62725;BME280;49026;52.600;4.694;2023-12-14T13:10:07;102060.69;;;6.41;100.00
62725;BME280;49026;52.600;4.694;2023-12-14T13:12:35;102072.03;;;6.26;100.00